sensor_id;sensor_type;location;lat;lon;timestamp;pressure;altitude;pressure_sealevel;temperature;humidity
51452;BME280;37521;52.020;-1.740;2023-07-31T00:00:18;98940.06;;;13.53;100.00
51452;BME280;37521;52.020;-1.740;2023-07-31T00:02:48;98940.06;;;13.53;100.00
51452;BME280;37521;52.020;-1.740;2023-07-31T00:05:16;98927.75;;;13.52;100.00
51452;BME280;37521;52.020;-1.740;2023-07-31T00:07:45;98936.69;;;13.51;100.00
51452;BME280;37521;52.020;-1.740;2023-07-31T00:10:14;98945.22;;;13.55;100.00
51452;BME280;37521;52.020;-1.740;2023-07-31T00:12:43;98926.34;;;13.59;100.00
51452;BME280;37521;52.020;-1.740;2023-07-31T00:15:13;98934.66;;;13.66;100.00
51452;BME280;37521;52.020;-1.740;2023-07-31T00:17:41;98925.28;;;13.73;100.00
51452;BME280;37521;52.020;-1.740;2023-07-31T00:20:12;98912.00;;;13.73;100.00
51452;BME280;37521;52.020;-1.740;2023-07-31T00:22:40;98927.81;;;13.75;100.00
51452;BME280;37521;52.020;-1.740;2023-07-31T00:25:09;98923.00;;;13.80;100.00
51452;BME280;37521;52.020;-1.740;2023-07-31T00:27:37;98912.38;;;13.80;100.00
51452;BME280;37521;52.020;-1.740;2023-07-31T00:30:11;98908.88;;;13.79;100.00
51452;BME280;37521;52.020;-1.740;2023-07-31T00:32:41;98918.41;;;13.82;100.00
51452;BME280;37521;52.020;-1.740;2023-07-31T00:35:12;98919.03;;;13.85;100.00
51452;BME280;37521;52.020;-1.740;2023-07-31T00:37:40;98905.38;;;13.90;100.00
51452;BME280;37521;52.020;-1.740;2023-07-31T00:40:09;98891.66;;;13.96;100.00
51452;BME280;37521;52.020;-1.740;2023-07-31T00:42:38;98890.69;;;13.97;100.00
51452;BME280;37521;52.020;-1.740;2023-07-31T00:45:08;98892.50;;;13.97;100.00
51452;BME280;37521;52.020;-1.740;2023-07-31T00:47:36;98882.84;;;13.96;100.00
51452;BME280;37521;52.020;-1.740;2023-07-31T00:50:07;98874.53;;;14.00;100.00
51452;BME280;37521;52.020;-1.740;2023-07-31T00:52:39;98864.50;;;14.04;100.00
51452;BME280;37521;52.020;-1.740;2023-07-31T00:55:08;98861.75;;;14.05;100.00
51452;BME280;37521;52.020;-1.740;2023-07-31T00:57:38;98858.13;;;14.06;100.00
51452;BME280;37521;52.020;-1.740;2023-07-31T01:00:09;98858.13;;;14.06;100.00
51452;BME280;37521;52.020;-1.740;2023-07-31T01:02:38;98840.53;;;14.05;100.00
51452;BME280;37521;52.020;-1.740;2023-07-31T01:05:07;98852.81;;;14.06;100.00
51452;BME280;37521;52.020;-1.740;2023-07-31T01:07:48;98826.28;;;14.06;100.00
51452;BME280;37521;52.020;-1.740;2023-07-31T01:10:22;98840.13;;;14.10;100.00
51452;BME280;37521;52.020;-1.740;2023-07-31T01:12:53;98834.72;;;14.11;100.00
51452;BME280;37521;52.020;-1.740;2023-07-31T01:15:21;98839.91;;;14.13;100.00
51452;BME280;37521;52.020;-1.740;2023-07-31T01:17:50;98837.13;;;14.14;100.00
51452;BME280;37521;52.020;-1.740;2023-07-31T01:20:21;98826.25;;;14.17;100.00
51452;BME280;37521;52.020;-1.740;2023-07-31T01:23:13;98832.03;;;14.23;100.00
51452;BME280;37521;52.020;-1.740;2023-07-31T01:25:56;98843.41;;;14.25;100.00
51452;BME280;37521;52.020;-1.740;2023-07-31T01:28:35;98833.72;;;14.24;100.00
51452;BME280;37521;52.020;-1.740;2023-07-31T01:31:07;98826.72;;;14.23;100.00
51452;BME280;37521;52.020;-1.740;2023-07-31T01:33:39;98829.63;;;14.20;100.00
51452;BME280;37521;52.020;-1.740;2023-07-31T01:36:08;98812.97;;;14.17;100.00
51452;BME280;37521;52.020;-1.740;2023-07-31T01:38:37;98814.19;;;14.13;100.00
51452;BME280;37521;52.020;-1.740;2023-07-31T01:41:09;98819.38;;;14.15;100.00
51452;BME280;37521;52.020;-1.740;2023-07-31T01:43:38;98809.59;;;14.15;100.00
51452;BME280;37521;52.020;-1.740;2023-07-31T01:46:08;98828.91;;;14.17;100.00
51452;BME280;37521;52.020;-1.740;2023-07-31T01:48:37;98821.41;;;14.23;100.00
51452;BME280;37521;52.020;-1.740;2023-07-31T01:51:06;98817.56;;;14.27;100.00
51452;BME280;37521;52.020;-1.740;2023-07-31T01:53:35;98815.50;;;14.30;100.00
51452;BME280;37521;52.020;-1.740;2023-07-31T01:56:04;98804.50;;;14.35;100.00
51452;BME280;37521;52.020;-1.740;2023-07-31T01:58:35;98801.63;;;14.38;100.00
51452;BME280;37521;52.020;-1.740;2023-07-31T02:01:03;98809.31;;;14.41;100.00
51452;BME280;37521;52.020;-1.740;2023-07-31T02:03:33;98797.59;;;14.43;100.00
51452;BME280;37521;52.020;-1.740;2023-07-31T02:06:02;98804.25;;;14.49;100.00
51452;BME280;37521;52.020;-1.740;2023-07-31T02:08:32;98796.63;;;14.56;100.00
51452;BME280;37521;52.020;-1.740;2023-07-31T02:11:01;98802.56;;;14.59;100.00
51452;BME280;37521;52.020;-1.740;2023-07-31T02:13:30;98822.13;;;14.58;100.00
51452;BME280;37521;52.020;-1.740;2023-07-31T02:16:02;98819.91;;;14.63;100.00
51452;BME280;37521;52.020;-1.740;2023-07-31T02:18:32;98805.41;;;14.67;100.00
51452;BME280;37521;52.020;-1.740;2023-07-31T02:21:01;98807.34;;;14.65;100.00
51452;BME280;37521;52.020;-1.740;2023-07-31T02:23:31;98808.31;;;14.64;100.00
51452;BME280;37521;52.020;-1.740;2023-07-31T02:26:01;98805.28;;;14.69;100.00
51452;BME280;37521;52.020;-1.740;2023-07-31T02:28:30;98798.34;;;14.78;100.00
51452;BME280;37521;52.020;-1.740;2023-07-31T02:30:59;98800.50;;;14.84;100.00
51452;BME280;37521;52.020;-1.740;2023-07-31T02:33:30;98786.28;;;14.85;100.00
51452;BME280;37521;52.020;-1.740;2023-07-31T02:35:59;98784.31;;;14.87;100.00
51452;BME280;37521;52.020;-1.740;2023-07-31T02:38:29;98784.06;;;14.90;100.00
51452;BME280;37521;52.020;-1.740;2023-07-31T02:40:59;98784.78;;;14.92;100.00
51452;BME280;37521;52.020;-1.740;2023-07-31T02:43:27;98790.53;;;14.97;100.00
51452;BME280;37521;52.020;-1.740;2023-07-31T02:45:56;98782.47;;;14.98;100.00
51452;BME280;37521;52.020;-1.740;2023-07-31T02:48:24;98789.31;;;15.01;100.00
51452;BME280;37521;52.020;-1.740;2023-07-31T02:50:54;98784.13;;;14.99;100.00
51452;BME280;37521;52.020;-1.740;2023-07-31T02:53:23;98779.91;;;14.97;100.00
51452;BME280;37521;52.020;-1.740;2023-07-31T02:55:51;98775.56;;;14.96;100.00
51452;BME280;37521;52.020;-1.740;2023-07-31T02:58:20;98769.78;;;14.91;100.00
51452;BME280;37521;52.020;-1.740;2023-07-31T03:00:50;98770.91;;;14.88;100.00
51452;BME280;37521;52.020;-1.740;2023-07-31T03:03:18;98770.91;;;14.88;100.00
51452;BME280;37521;52.020;-1.740;2023-07-31T03:05:48;98777.06;;;14.89;100.00
51452;BME280;37521;52.020;-1.740;2023-07-31T03:08:19;98772.44;;;14.91;100.00
51452;BME280;37521;52.020;-1.740;2023-07-31T03:10:49;98770.06;;;14.88;100.00
51452;BME280;37521;52.020;-1.740;2023-07-31T03:13:17;98765.59;;;14.88;100.00
51452;BME280;37521;52.020;-1.740;2023-07-31T03:15:47;98761.09;;;14.89;100.00
51452;BME280;37521;52.020;-1.740;2023-07-31T03:18:15;98775.38;;;14.88;100.00
51452;BME280;37521;52.020;-1.740;2023-07-31T03:20:44;98776.72;;;14.82;100.00
51452;BME280;37521;52.020;-1.740;2023-07-31T03:23:12;98773.34;;;14.80;100.00
51452;BME280;37521;52.020;-1.740;2023-07-31T03:25:55;98781.19;;;14.82;100.00
51452;BME280;37521;52.020;-1.740;2023-07-31T03:28:27;98786.28;;;14.85;100.00
51452;BME280;37521;52.020;-1.740;2023-07-31T03:30:58;98785.72;;;14.91;100.00
51452;BME280;37521;52.020;-1.740;2023-07-31T03:33:26;98780.69;;;14.88;100.00
51452;BME280;37521;52.020;-1.740;2023-07-31T03:35:56;98776.72;;;14.82;100.00
51452;BME280;37521;52.020;-1.740;2023-07-31T03:38:24;98775.88;;;14.82;100.00
51452;BME280;37521;52.020;-1.740;2023-07-31T03:40:54;98767.66;;;14.85;100.00
51452;BME280;37521;52.020;-1.740;2023-07-31T03:43:24;98764.88;;;14.86;100.00
51452;BME280;37521;52.020;-1.740;2023-07-31T03:45:53;98777.06;;;14.89;100.00
51452;BME280;37521;52.020;-1.740;2023-07-31T03:48:24;98779.00;;;14.87;100.00
51452;BME280;37521;52.020;-1.740;2023-07-31T03:50:54;98780.97;;;14.85;100.00
51452;BME280;37521;52.020;-1.740;2023-07-31T03:53:23;98772.97;;;14.85;100.00
51452;BME280;37521;52.020;-1.740;2023-07-31T03:55:53;98777.56;;;14.83;100.00
51452;BME280;37521;52.020;-1.740;2023-07-31T03:58:22;98777.44;;;14.84;100.00
51452;BME280;37521;52.020;-1.740;2023-07-31T04:00:50;98773.69;;;14.87;100.00
51452;BME280;37521;52.020;-1.740;2023-07-31T04:03:19;98772.56;;;14.89;100.00
51452;BME280;37521;52.020;-1.740;2023-07-31T04:05:48;98779.97;;;14.86;100.00
51452;BME280;37521;52.020;-1.740;2023-07-31T04:08:16;98778.66;;;14.80;100.00
51452;BME280;37521;52.020;-1.740;2023-07-31T04:10:45;98781.69;;;14.76;100.00
51452;BME280;37521;52.020;-1.740;2023-07-31T04:13:15;98797.44;;;14.67;100.00
51452;BME280;37521;52.020;-1.740;2023-07-31T04:15:48;98796.41;;;14.59;100.00
51452;BME280;37521;52.020;-1.740;2023-07-31T04:18:18;98794.09;;;14.54;100.00
51452;BME280;37521;52.020;-1.740;2023-07-31T04:20:48;98800.75;;;14.49;100.00
51452;BME280;37521;52.020;-1.740;2023-07-31T04:23:17;98808.00;;;14.47;100.00
51452;BME280;37521;52.020;-1.740;2023-07-31T04:25:45;98807.38;;;14.43;100.00
51452;BME280;37521;52.020;-1.740;2023-07-31T04:28:15;98801.34;;;14.41;100.00
51452;BME280;37521;52.020;-1.740;2023-07-31T04:30:44;98804.75;;;14.32;100.00
51452;BME280;37521;52.020;-1.740;2023-07-31T04:33:16;98812.97;;;14.29;100.00
51452;BME280;37521;52.020;-1.740;2023-07-31T04:35:50;98806.31;;;14.23;100.00
51452;BME280;37521;52.020;-1.740;2023-07-31T04:38:21;98802.13;;;14.21;100.00
51452;BME280;37521;52.020;-1.740;2023-07-31T04:40:50;98798.00;;;14.16;100.00
51452;BME280;37521;52.020;-1.740;2023-07-31T04:43:20;98805.53;;;14.11;100.00
51452;BME280;37521;52.020;-1.740;2023-07-31T04:45:49;98804.44;;;14.03;100.00
51452;BME280;37521;52.020;-1.740;2023-07-31T04:48:17;98805.75;;;13.97;100.00
51452;BME280;37521;52.020;-1.740;2023-07-31T04:50:46;98799.03;;;13.93;100.00
51452;BME280;37521;52.020;-1.740;2023-07-31T04:53:14;98804.31;;;13.93;100.00
51452;BME280;37521;52.020;-1.740;2023-07-31T04:55:44;98809.88;;;13.90;100.00
51452;BME280;37521;52.020;-1.740;2023-07-31T04:58:12;98818.66;;;13.90;100.00
51452;BME280;37521;52.020;-1.740;2023-07-31T05:00:43;98828.34;;;13.92;100.00
51452;BME280;37521;52.020;-1.740;2023-07-31T05:03:12;98829.19;;;13.92;100.00
51452;BME280;37521;52.020;-1.740;2023-07-31T05:05:41;98825.56;;;13.93;100.00
51452;BME280;37521;52.020;-1.740;2023-07-31T05:08:10;98813.25;;;13.92;100.00
51452;BME280;37521;52.020;-1.740;2023-07-31T05:10:39;98811.56;;;13.91;100.00
51452;BME280;37521;52.020;-1.740;2023-07-31T05:13:08;98807.34;;;13.88;100.00
51452;BME280;37521;52.020;-1.740;2023-07-31T05:15:38;98803.97;;;13.86;100.00
51452;BME280;37521;52.020;-1.740;2023-07-31T05:18:09;98807.47;;;13.87;100.00
51452;BME280;37521;52.020;-1.740;2023-07-31T05:20:38;98817.38;;;13.85;100.00
51452;BME280;37521;52.020;-1.740;2023-07-31T05:23:06;98815.78;;;13.82;100.00
51452;BME280;37521;52.020;-1.740;2023-07-31T05:25:35;98812.28;;;13.82;100.00
51452;BME280;37521;52.020;-1.740;2023-07-31T05:28:05;98825.19;;;13.86;100.00
51452;BME280;37521;52.020;-1.740;2023-07-31T05:30:33;98817.72;;;13.92;100.00
51452;BME280;37521;52.020;-1.740;2023-07-31T05:33:02;98824.34;;;13.97;100.00
51452;BME280;37521;52.020;-1.740;2023-07-31T05:35:33;98826.50;;;14.03;100.00
51452;BME280;37521;52.020;-1.740;2023-07-31T05:38:02;98816.25;;;14.10;100.00
51452;BME280;37521;52.020;-1.740;2023-07-31T05:40:32;98816.84;;;14.13;100.00
51452;BME280;37521;52.020;-1.740;2023-07-31T05:55:20;98821.41;;;14.23;100.00
51452;BME280;37521;52.020;-1.740;2023-07-31T05:57:50;98824.06;;;14.23;100.00
51452;BME280;37521;52.020;-1.740;2023-07-31T06:00:18;98824.47;;;14.18;100.00
51452;BME280;37521;52.020;-1.740;2023-07-31T06:02:47;98815.53;;;14.19;100.00
51452;BME280;37521;52.020;-1.740;2023-07-31T06:05:16;98814.44;;;14.22;100.00
51452;BME280;37521;52.020;-1.740;2023-07-31T06:07:45;98819.72;;;14.22;100.00
51452;BME280;37521;52.020;-1.740;2023-07-31T06:10:14;98813.59;;;14.21;100.00
51452;BME280;37521;52.020;-1.740;2023-07-31T06:12:44;98805.50;;;14.23;100.00
51452;BME280;37521;52.020;-1.740;2023-07-31T06:15:12;98797.78;;;14.20;100.00
51452;BME280;37521;52.020;-1.740;2023-07-31T06:17:42;98804.06;;;14.18;100.00
51452;BME280;37521;52.020;-1.740;2023-07-31T06:20:11;98796.09;;;14.18;100.00
51452;BME280;37521;52.020;-1.740;2023-07-31T06:22:39;98794.53;;;14.16;100.00
51452;BME280;37521;52.020;-1.740;2023-07-31T06:25:08;98785.47;;;14.18;100.00
51452;BME280;37521;52.020;-1.740;2023-07-31T06:27:41;98775.72;;;14.19;100.00
51452;BME280;37521;52.020;-1.740;2023-07-31T06:30:11;98784.50;;;14.20;100.00
51452;BME280;37521;52.020;-1.740;2023-07-31T06:32:40;98781.72;;;14.21;100.00
51452;BME280;37521;52.020;-1.740;2023-07-31T06:35:08;98774.47;;;14.23;100.00
51452;BME280;37521;52.020;-1.740;2023-07-31T06:37:37;98777.03;;;14.25;100.00
51452;BME280;37521;52.020;-1.740;2023-07-31T06:40:08;98781.09;;;14.29;100.00
51452;BME280;37521;52.020;-1.740;2023-07-31T06:42:37;98793.88;;;14.35;100.00
51452;BME280;37521;52.020;-1.740;2023-07-31T06:45:06;98786.53;;;14.38;100.00
51452;BME280;37521;52.020;-1.740;2023-07-31T06:47:36;98789.75;;;14.42;100.00
51452;BME280;37521;52.020;-1.740;2023-07-31T06:50:05;98784.94;;;14.47;100.00
51452;BME280;37521;52.020;-1.740;2023-07-31T06:52:34;98777.31;;;14.54;100.00
51452;BME280;37521;52.020;-1.740;2023-07-31T06:55:14;98788.53;;;14.57;100.00
51452;BME280;37521;52.020;-1.740;2023-07-31T06:57:44;98790.44;;;14.66;100.00
51452;BME280;37521;52.020;-1.740;2023-07-31T07:00:13;98778.56;;;14.70;100.00
51452;BME280;37521;52.020;-1.740;2023-07-31T07:02:43;98786.31;;;14.74;100.00
51452;BME280;37521;52.020;-1.740;2023-07-31T07:05:15;98789.81;;;14.74;100.00
51452;BME280;37521;52.020;-1.740;2023-07-31T07:07:44;98778.06;;;14.77;100.00
51452;BME280;37521;52.020;-1.740;2023-07-31T07:10:12;98774.44;;;14.78;100.00
51452;BME280;37521;52.020;-1.740;2023-07-31T07:12:41;98775.53;;;14.75;100.00
51452;BME280;37521;52.020;-1.740;2023-07-31T07:15:10;98773.41;;;14.69;100.00
51452;BME280;37521;52.020;-1.740;2023-07-31T07:17:38;98766.78;;;14.63;100.00
51452;BME280;37521;52.020;-1.740;2023-07-31T07:20:09;98768.72;;;14.61;100.00
51452;BME280;37521;52.020;-1.740;2023-07-31T07:22:38;98777.53;;;14.62;100.00
51452;BME280;37521;52.020;-1.740;2023-07-31T07:25:07;98775.97;;;14.59;100.00
51452;BME280;37521;52.020;-1.740;2023-07-31T07:27:35;98766.19;;;14.60;100.00
51452;BME280;37521;52.020;-1.740;2023-07-31T07:30:05;98787.69;;;14.57;100.00
51452;BME280;37521;52.020;-1.740;2023-07-31T07:32:34;98774.31;;;14.58;100.00
51452;BME280;37521;52.020;-1.740;2023-07-31T07:35:03;98776.97;;;14.58;100.00
51452;BME280;37521;52.020;-1.740;2023-07-31T07:37:33;98779.63;;;14.58;100.00
51452;BME280;37521;52.020;-1.740;2023-07-31T07:40:02;98777.66;;;14.60;100.00
51452;BME280;37521;52.020;-1.740;2023-07-31T07:42:30;98779.06;;;14.64;100.00
51452;BME280;37521;52.020;-1.740;2023-07-31T07:44:59;98767.25;;;14.68;100.00
51452;BME280;37521;52.020;-1.740;2023-07-31T07:47:28;98757.09;;;14.74;100.00
51452;BME280;37521;52.020;-1.740;2023-07-31T07:49:56;98763.09;;;14.76;100.00
51452;BME280;37521;52.020;-1.740;2023-07-31T07:52:25;98773.88;;;14.74;100.00
51452;BME280;37521;52.020;-1.740;2023-07-31T07:54:55;98759.59;;;14.75;100.00
51452;BME280;37521;52.020;-1.740;2023-07-31T07:57:24;98769.13;;;14.78;100.00
51452;BME280;37521;52.020;-1.740;2023-07-31T07:59:52;98759.22;;;14.80;100.00
51452;BME280;37521;52.020;-1.740;2023-07-31T08:02:21;98747.63;;;14.81;100.00
51452;BME280;37521;52.020;-1.740;2023-07-31T08:04:50;98729.16;;;14.79;100.00
51452;BME280;37521;52.020;-1.740;2023-07-31T08:07:19;98731.91;;;14.78;100.00
51452;BME280;37521;52.020;-1.740;2023-07-31T08:09:47;98716.84;;;14.78;100.00
51452;BME280;37521;52.020;-1.740;2023-07-31T08:12:17;98720.72;;;14.74;100.00
51452;BME280;37521;52.020;-1.740;2023-07-31T08:14:45;98729.66;;;14.73;100.00
51452;BME280;37521;52.020;-1.740;2023-07-31T08:17:14;98740.88;;;14.77;100.00
51452;BME280;37521;52.020;-1.740;2023-07-31T08:19:42;98756.81;;;14.77;100.00
51452;BME280;37521;52.020;-1.740;2023-07-31T08:22:12;98767.44;;;14.77;100.00
51452;BME280;37521;52.020;-1.740;2023-07-31T08:24:41;98769.38;;;14.75;100.00
51452;BME280;37521;52.020;-1.740;2023-07-31T08:27:10;98766.72;;;14.75;100.00
51452;BME280;37521;52.020;-1.740;2023-07-31T08:29:40;98764.06;;;14.75;100.00
51452;BME280;37521;52.020;-1.740;2023-07-31T08:32:09;98746.66;;;14.82;100.00
51452;BME280;37521;52.020;-1.740;2023-07-31T08:34:37;98751.44;;;14.88;100.00
51452;BME280;37521;52.020;-1.740;2023-07-31T08:37:06;98748.28;;;14.94;100.00
51452;BME280;37521;52.020;-1.740;2023-07-31T08:39:34;98727.59;;;14.97;100.00
51452;BME280;37521;52.020;-1.740;2023-07-31T08:42:08;98711.25;;;15.02;100.00
51452;BME280;37521;52.020;-1.740;2023-07-31T08:44:37;98706.41;;;15.07;100.00
51452;BME280;37521;52.020;-1.740;2023-07-31T08:47:08;98715.25;;;15.17;100.00
51452;BME280;37521;52.020;-1.740;2023-07-31T08:49:37;98707.28;;;15.17;100.00
51452;BME280;37521;52.020;-1.740;2023-07-31T08:52:07;98690.91;;;15.12;100.00
51452;BME280;37521;52.020;-1.740;2023-07-31T08:54:36;98683.91;;;15.11;100.00
51452;BME280;37521;52.020;-1.740;2023-07-31T08:57:05;98678.84;;;15.08;100.00
51452;BME280;37521;52.020;-1.740;2023-07-31T08:59:35;98688.75;;;15.06;100.00
51452;BME280;37521;52.020;-1.740;2023-07-31T09:02:07;98687.34;;;15.02;100.00
51452;BME280;37521;52.020;-1.740;2023-07-31T09:04:38;98687.59;;;14.99;100.00
51452;BME280;37521;52.020;-1.740;2023-07-31T09:07:07;98701.31;;;15.04;100.00
51452;BME280;37521;52.020;-1.740;2023-07-31T09:09:36;98697.06;;;15.13;100.00
51452;BME280;37521;52.020;-1.740;2023-07-31T09:12:05;98701.56;;;15.22;100.00
51452;BME280;37521;52.020;-1.740;2023-07-31T09:14:35;98701.75;;;15.30;100.00
51452;BME280;37521;52.020;-1.740;2023-07-31T09:17:05;98712.59;;;15.38;100.00
51452;BME280;37521;52.020;-1.740;2023-07-31T09:19:34;98720.59;;;15.48;100.00
51452;BME280;37521;52.020;-1.740;2023-07-31T09:22:06;98728.44;;;15.49;100.00
51452;BME280;37521;52.020;-1.740;2023-07-31T09:24:34;98730.41;;;15.57;100.00
51452;BME280;37521;52.020;-1.740;2023-07-31T09:27:03;98719.78;;;15.57;100.00
51452;BME280;37521;52.020;-1.740;2023-07-31T09:29:32;98720.06;;;15.54;100.00
51452;BME280;37521;52.020;-1.740;2023-07-31T09:32:00;98710.66;;;15.50;100.00
51452;BME280;37521;52.020;-1.740;2023-07-31T09:34:31;98703.19;;;15.44;100.00
51452;BME280;37521;52.020;-1.740;2023-07-31T09:37:06;98706.16;;;15.41;100.00
51452;BME280;37521;52.020;-1.740;2023-07-31T09:39:45;98711.28;;;15.33;100.00
51452;BME280;37521;52.020;-1.740;2023-07-31T09:42:24;98736.91;;;15.34;100.00
51452;BME280;37521;52.020;-1.740;2023-07-31T09:44:53;98733.66;;;15.30;100.00
51452;BME280;37521;52.020;-1.740;2023-07-31T09:47:25;98728.34;;;15.30;100.00
51452;BME280;37521;52.020;-1.740;2023-07-31T09:49:54;98720.25;;;15.32;100.00
51452;BME280;37521;52.020;-1.740;2023-07-31T09:52:26;98700.38;;;15.36;100.00
51452;BME280;37521;52.020;-1.740;2023-07-31T09:54:57;98689.50;;;15.39;100.00
51452;BME280;37521;52.020;-1.740;2023-07-31T09:57:26;98694.66;;;15.40;100.00
51452;BME280;37521;52.020;-1.740;2023-07-31T09:59:56;98701.06;;;15.38;100.00
51452;BME280;37521;52.020;-1.740;2023-07-31T10:02:24;98705.44;;;15.39;100.00
51452;BME280;37521;52.020;-1.740;2023-07-31T10:04:57;98699.16;;;15.40;100.00
51452;BME280;37521;52.020;-1.740;2023-07-31T10:07:30;98697.19;;;15.42;100.00
51452;BME280;37521;52.020;-1.740;2023-07-31T10:09:59;98727.16;;;15.44;100.00
51452;BME280;37521;52.020;-1.740;2023-07-31T10:12:32;98735.41;;;15.41;100.00
51452;BME280;37521;52.020;-1.740;2023-07-31T10:15:02;98730.88;;;15.32;100.00
51452;BME280;37521;52.020;-1.740;2023-07-31T10:17:31;98747.63;;;15.22;100.00
51452;BME280;37521;52.020;-1.740;2023-07-31T10:20:02;98752.28;;;15.09;100.00
51452;BME280;37521;52.020;-1.740;2023-07-31T10:22:34;98758.78;;;14.95;100.00
51452;BME280;37521;52.020;-1.740;2023-07-31T10:25:03;98761.94;;;14.89;100.00
51452;BME280;37521;52.020;-1.740;2023-07-31T10:27:34;98756.75;;;14.88;100.00
51452;BME280;37521;52.020;-1.740;2023-07-31T10:30:04;98747.69;;;14.90;100.00
51452;BME280;37521;52.020;-1.740;2023-07-31T10:32:34;98734.53;;;14.89;100.00
51452;BME280;37521;52.020;-1.740;2023-07-31T10:35:04;98749.63;;;14.88;100.00
51452;BME280;37521;52.020;-1.740;2023-07-31T10:37:38;98729.06;;;14.90;100.00
51452;BME280;37521;52.020;-1.740;2023-07-31T10:40:10;98730.06;;;14.89;100.00
51452;BME280;37521;52.020;-1.740;2023-07-31T10:42:46;98725.56;;;14.90;100.00
51452;BME280;37521;52.020;-1.740;2023-07-31T10:45:24;98723.38;;;14.95;100.00
51452;BME280;37521;52.020;-1.740;2023-07-31T10:48:01;98716.94;;;14.97;100.00
51452;BME280;37521;52.020;-1.740;2023-07-31T10:50:31;98714.44;;;14.96;100.00
51452;BME280;37521;52.020;-1.740;2023-07-31T10:53:02;98719.75;;;14.96;100.00
51452;BME280;37521;52.020;-1.740;2023-07-31T10:55:32;98731.34;;;14.95;100.00
51452;BME280;37521;52.020;-1.740;2023-07-31T10:58:06;98756.75;;;14.88;100.00
51452;BME280;37521;52.020;-1.740;2023-07-31T11:00:37;98752.66;;;14.84;100.00
51452;BME280;37521;52.020;-1.740;2023-07-31T11:03:09;98765.19;;;14.72;100.00
51452;BME280;37521;52.020;-1.740;2023-07-31T11:05:50;98756.16;;;14.63;100.00
51452;BME280;37521;52.020;-1.740;2023-07-31T11:08:23;98769.00;;;14.58;100.00
51452;BME280;37521;52.020;-1.740;2023-07-31T11:11:05;98765.88;;;14.53;100.00
51452;BME280;37521;52.020;-1.740;2023-07-31T11:13:41;98762.97;;;14.45;100.00
51452;BME280;37521;52.020;-1.740;2023-07-31T11:16:10;98753.81;;;14.38;100.00
51452;BME280;37521;52.020;-1.740;2023-07-31T11:18:39;98745.13;;;14.36;100.00
51452;BME280;37521;52.020;-1.740;2023-07-31T11:21:12;98743.19;;;14.38;100.00
51452;BME280;37521;52.020;-1.740;2023-07-31T11:23:46;98733.50;;;14.37;100.00
51452;BME280;37521;52.020;-1.740;2023-07-31T11:26:15;98727.97;;;14.40;100.00
51452;BME280;37521;52.020;-1.740;2023-07-31T11:28:46;98723.22;;;14.43;100.00
51452;BME280;37521;52.020;-1.740;2023-07-31T11:31:15;98717.72;;;14.47;100.00
51452;BME280;37521;52.020;-1.740;2023-07-31T11:33:44;98710.09;;;14.42;100.00
51452;BME280;37521;52.020;-1.740;2023-07-31T11:36:17;98705.88;;;14.39;100.00
51452;BME280;37521;52.020;-1.740;2023-07-31T11:38:47;98697.91;;;14.39;100.00
51452;BME280;37521;52.020;-1.740;2023-07-31T11:41:16;98690.09;;;14.38;100.00
51452;BME280;37521;52.020;-1.740;2023-07-31T11:43:45;98692.13;;;14.34;100.00
51452;BME280;37521;52.020;-1.740;2023-07-31T11:46:14;98703.88;;;14.32;100.00
51452;BME280;37521;52.020;-1.740;2023-07-31T11:48:43;98715.97;;;14.25;100.00
51452;BME280;37521;52.020;-1.740;2023-07-31T11:51:13;98716.13;;;14.12;100.00
51452;BME280;37521;52.020;-1.740;2023-07-31T11:53:44;98709.50;;;13.95;100.00
51452;BME280;37521;52.020;-1.740;2023-07-31T11:56:16;98703.75;;;13.79;100.00
51452;BME280;37521;52.020;-1.740;2023-07-31T11:58:48;98693.16;;;13.68;100.00
51452;BME280;37521;52.020;-1.740;2023-07-31T12:01:18;98678.94;;;13.57;100.00
51452;BME280;37521;52.020;-1.740;2023-07-31T12:03:48;98670.28;;;13.44;100.00
51452;BME280;37521;52.020;-1.740;2023-07-31T12:06:17;98659.69;;;13.33;100.00
51452;BME280;37521;52.020;-1.740;2023-07-31T12:08:48;98650.75;;;13.23;100.00
51452;BME280;37521;52.020;-1.740;2023-07-31T12:11:18;98626.91;;;13.12;100.00
51452;BME280;37521;52.020;-1.740;2023-07-31T12:13:46;98644.97;;;13.06;100.00
51452;BME280;37521;52.020;-1.740;2023-07-31T12:16:15;98675.56;;;12.99;100.00
51452;BME280;37521;52.020;-1.740;2023-07-31T12:18:43;98660.72;;;12.97;100.00
51452;BME280;37521;52.020;-1.740;2023-07-31T12:21:13;98652.88;;;12.95;100.00
51452;BME280;37521;52.020;-1.740;2023-07-31T12:23:44;98648.44;;;12.96;100.00
51452;BME280;37521;52.020;-1.740;2023-07-31T12:26:14;98643.03;;;12.97;100.00
51452;BME280;37521;52.020;-1.740;2023-07-31T12:28:45;98670.00;;;13.02;100.00
51452;BME280;37521;52.020;-1.740;2023-07-31T12:31:15;98739.03;;;13.12;100.00
51452;BME280;37521;52.020;-1.740;2023-07-31T12:33:45;98771.44;;;13.16;100.00
51452;BME280;37521;52.020;-1.740;2023-07-31T12:36:16;98739.63;;;13.16;100.00
51452;BME280;37521;52.020;-1.740;2023-07-31T12:38:45;98698.19;;;13.15;100.00
51452;BME280;37521;52.020;-1.740;2023-07-31T12:41:13;98639.53;;;13.08;100.00
51452;BME280;37521;52.020;-1.740;2023-07-31T12:43:44;98640.50;;;13.07;100.00
51452;BME280;37521;52.020;-1.740;2023-07-31T12:46:13;98667.72;;;13.09;100.00
51452;BME280;37521;52.020;-1.740;2023-07-31T12:48:44;98660.50;;;13.11;100.00
51452;BME280;37521;52.020;-1.740;2023-07-31T12:51:12;98676.63;;;13.08;100.00
51452;BME280;37521;52.020;-1.740;2023-07-31T12:53:41;98654.25;;;13.12;100.00
51452;BME280;37521;52.020;-1.740;2023-07-31T12:56:10;98710.00;;;13.10;100.00
51452;BME280;37521;52.020;-1.740;2023-07-31T12:58:38;98703.84;;;13.10;100.00
51452;BME280;37521;52.020;-1.740;2023-07-31T13:01:08;98682.91;;;13.07;100.00
51452;BME280;37521;52.020;-1.740;2023-07-31T13:03:37;98683.03;;;13.05;100.00
51452;BME280;37521;52.020;-1.740;2023-07-31T13:06:05;98674.81;;;13.08;100.00